createdAt,value
2022-07-25T00:02:55.262Z,79.99
2022-07-25T00:05:57.289Z,79.78
2022-07-25T00:08:59.499Z,80.36
2022-07-25T00:12:01.733Z,80.98
2022-07-25T00:15:04.739Z,81.34
2022-07-25T00:18:06.747Z,82.26
2022-07-25T00:21:09.103Z,80.17
2022-07-25T00:24:11.180Z,80.92
2022-07-25T00:27:13.384Z,80.06
2022-07-25T00:30:15.501Z,79.03
2022-07-25T00:33:17.807Z,81.25
2022-07-25T00:36:19.927Z,79.99
2022-07-25T00:39:22.127Z,80.61
2022-07-25T00:42:24.300Z,83.64
2022-07-25T00:45:26.674Z,82.56
2022-07-25T00:48:29.046Z,80.88
2022-07-25T00:51:31.648Z,80.50
2022-07-25T00:54:33.704Z,81.29
2022-07-25T00:57:35.975Z,80.45
2022-07-25T01:00:38.025Z,80.51
2022-07-25T01:03:40.277Z,79.17
2022-07-25T01:06:42.466Z,79.31
2022-07-25T01:09:44.757Z,79.24
2022-07-25T01:12:55.050Z,79.73
2022-07-25T01:15:57.288Z,79.66
2022-07-25T01:18:59.823Z,81.21
2022-07-25T01:22:02.623Z,82.59
2022-07-25T01:25:04.991Z,82.35
2022-07-25T01:28:07.242Z,81.07
2022-07-25T01:31:09.472Z,80.08
2022-07-25T01:34:12.175Z,79.50
2022-07-25T01:37:14.305Z,80.44
2022-07-25T01:40:16.567Z,80.34
2022-07-25T01:43:18.907Z,80.99
2022-07-25T01:46:21.857Z,80.36
2022-07-25T01:49:26.770Z,81.39
2022-07-25T01:52:29.064Z,81.75
2022-07-25T01:55:31.176Z,81.55
2022-07-25T01:58:34.778Z,83.22
2022-07-25T02:01:37.568Z,81.59
2022-07-25T02:04:40.107Z,82.17
2022-07-25T02:07:42.265Z,81.61
2022-07-25T02:10:44.592Z,81.37
2022-07-25T02:13:46.855Z,81.98
2022-07-25T02:16:49.626Z,80.86
2022-07-25T02:19:53.009Z,80.49
2022-07-25T02:22:55.226Z,81.80
2022-07-25T02:25:57.378Z,81.94
2022-07-25T02:28:59.589Z,81.36
2022-07-25T02:32:01.646Z,81.53
2022-07-25T02:35:05.470Z,80.61
2022-07-25T02:38:19.737Z,81.68
2022-07-25T02:41:21.981Z,82.01
2022-07-25T02:44:24.173Z,81.67
2022-07-25T02:47:26.418Z,81.37
2022-07-25T02:50:29.059Z,80.70
2022-07-25T02:53:55.510Z,81.12
2022-07-25T02:56:53.642Z,80.84
2022-07-25T02:59:55.982Z,83.80
2022-07-25T03:02:58.332Z,83.63
2022-07-25T03:06:00.731Z,82.56
2022-07-25T03:09:02.851Z,82.34
2022-07-25T03:12:05.622Z,83.07
2022-07-25T03:15:08.526Z,84.63
2022-07-25T03:18:10.754Z,85.27
2022-07-25T03:21:15.991Z,84.26
2022-07-25T03:24:19.112Z,85.24
2022-07-25T03:27:21.143Z,87.01
2022-07-25T03:30:23.659Z,85.42
2022-07-25T03:33:25.900Z,85.04
2022-07-25T03:36:28.352Z,84.30
2022-07-25T03:39:30.569Z,83.54
2022-07-25T03:42:35.300Z,82.26
2022-07-25T03:45:37.813Z,84.07
2022-07-25T03:48:40.198Z,86.52
2022-07-25T03:51:42.491Z,86.00
2022-07-25T03:54:44.700Z,86.90
2022-07-25T03:57:46.752Z,87.07
2022-07-25T04:00:49.076Z,87.74
2022-07-25T04:03:51.138Z,85.94
2022-07-25T04:06:53.365Z,82.91
2022-07-25T04:09:55.381Z,84.36
2022-07-25T04:12:57.657Z,83.29
2022-07-25T04:15:59.603Z,85.48
2022-07-25T04:19:02.119Z,85.63
2022-07-25T04:22:04.182Z,87.10
2022-07-25T04:25:06.858Z,86.70
2022-07-25T04:28:09.187Z,87.10
2022-07-25T04:31:11.551Z,87.91
2022-07-25T04:34:13.537Z,88.99
2022-07-25T04:37:15.734Z,86.03
2022-07-25T04:40:17.878Z,85.18
2022-07-25T04:43:20.820Z,87.05
2022-07-25T04:46:23.530Z,87.55
2022-07-25T04:49:25.918Z,87.60
2022-07-25T04:52:28.256Z,88.07
2022-07-25T04:55:30.577Z,90.04
2022-07-25T04:58:32.789Z,89.35
2022-07-25T05:01:35.498Z,90.27
2022-07-25T05:04:41.106Z,90.84
2022-07-25T05:07:47.833Z,92.71
2022-07-25T05:10:50.663Z,94.30
2022-07-25T05:13:56.922Z,96.14
2022-07-25T05:16:59.557Z,97.65
2022-07-25T05:20:02.164Z,98.87
2022-07-25T05:23:04.218Z,99.48
2022-07-25T05:26:06.604Z,100.00
2022-07-25T05:29:08.652Z,100.00
2022-07-25T05:32:11.472Z,100.00
2022-07-25T05:35:31.162Z,98.18
2022-07-25T05:38:33.991Z,97.30
2022-07-25T05:41:36.189Z,96.10
2022-07-25T05:44:47.710Z,94.40
2022-07-25T05:48:11.122Z,93.49
2022-07-25T05:51:13.857Z,94.26
2022-07-25T05:54:16.231Z,93.56
2022-07-25T05:57:28.092Z,89.46
2022-07-25T06:00:31.218Z,88.83
2022-07-25T06:03:34.391Z,84.96
2022-07-25T06:06:36.601Z,83.45
2022-07-25T06:09:38.997Z,79.28
2022-07-25T06:12:41.092Z,77.61
2022-07-25T06:15:43.622Z,76.69
2022-07-25T06:18:47.719Z,72.89
2022-07-25T06:21:50.367Z,71.07
2022-07-25T06:24:52.569Z,70.08
2022-07-25T06:27:55.593Z,70.90
2022-07-25T06:30:58.154Z,66.02
2022-07-25T06:34:00.602Z,66.18
2022-07-25T06:37:03.346Z,66.57
2022-07-25T06:40:09.826Z,62.97
2022-07-25T06:43:12.517Z,62.45
2022-07-25T06:46:15.136Z,59.39
2022-07-25T06:49:17.859Z,60.14
2022-07-25T06:52:23.411Z,58.14
2022-07-25T06:55:25.768Z,57.14
2022-07-25T06:58:28.971Z,57.24
2022-07-25T07:01:31.201Z,57.32
2022-07-25T07:04:33.524Z,56.56
2022-07-25T07:07:35.795Z,52.66
2022-07-25T07:10:40.431Z,53.30
2022-07-25T07:13:42.815Z,52.44
2022-07-25T07:16:45.280Z,52.36
2022-07-25T07:19:47.637Z,51.19
2022-07-25T07:22:50.861Z,50.04
2022-07-25T07:25:54.854Z,48.98
2022-07-25T07:28:57.513Z,50.31
2022-07-25T07:31:59.878Z,49.71
2022-07-25T07:35:02.654Z,49.64
2022-07-25T07:38:05.253Z,48.74
2022-07-25T07:41:08.517Z,49.56
2022-07-25T07:44:10.660Z,49.15
2022-07-25T07:47:14.680Z,47.45
2022-07-25T07:50:19.275Z,46.88
2022-07-25T07:53:22.409Z,48.15
2022-07-25T07:56:34.953Z,45.79
2022-07-25T07:59:39.054Z,43.38
2022-07-25T08:02:46.465Z,46.07
2022-07-25T08:05:51.909Z,45.36
2022-07-25T08:08:54.579Z,44.96
2022-07-25T08:11:57.893Z,42.58
2022-07-25T08:15:01.547Z,41.75
2022-07-25T08:18:04.830Z,39.84
2022-07-25T08:21:20.158Z,39.68
2022-07-25T08:24:22.916Z,37.97
2022-07-25T08:27:25.726Z,43.23
2022-07-25T08:30:28.108Z,37.76
2022-07-25T08:33:30.189Z,39.95
2022-07-25T08:36:34.887Z,39.38
2022-07-25T08:39:37.177Z,38.21
2022-07-25T08:42:40.464Z,38.27
2022-07-25T08:45:45.926Z,40.35
2022-07-25T08:48:52.381Z,39.34
2022-07-25T08:51:56.598Z,39.72
2022-07-25T08:55:00.102Z,38.58
2022-07-25T08:58:02.699Z,37.59
2022-07-25T09:01:05.633Z,40.45
2022-07-25T09:04:11.064Z,36.54
2022-07-25T09:07:13.752Z,35.96
2022-07-25T09:10:27.520Z,35.40
2022-07-25T09:13:31.389Z,37.16
2022-07-25T09:16:40.448Z,37.99
2022-07-25T09:21:28.881Z,35.68
2022-07-25T09:24:30.835Z,36.11
2022-07-25T09:27:34.628Z,34.28
2022-07-25T09:41:02.393Z,35.60
2022-07-25T09:44:23.197Z,37.00
2022-07-25T09:47:25.666Z,36.35
2022-07-25T09:50:30.478Z,36.12
2022-07-25T09:58:21.937Z,36.52
2022-07-25T10:01:29.811Z,35.28
2022-07-25T10:04:56.218Z,36.27
2022-07-25T10:08:49.601Z,32.78
2022-07-25T10:12:09.962Z,33.43
2022-07-25T10:20:29.162Z,33.72
2022-07-25T10:23:32.619Z,36.66
2022-07-25T10:26:40.438Z,37.35
2022-07-25T10:29:43.283Z,37.07
2022-07-25T10:32:58.232Z,33.43
2022-07-25T10:36:08.492Z,37.04
2022-07-25T10:39:13.809Z,33.87
2022-07-25T10:42:18.858Z,34.46
2022-07-25T10:45:38.306Z,33.20
2022-07-25T10:48:42.639Z,32.72
2022-07-25T10:52:07.305Z,32.91
2022-07-25T10:55:38.633Z,33.41
2022-07-25T11:03:45.242Z,34.26
2022-07-25T11:07:10.121Z,32.02
2022-07-25T11:10:12.788Z,33.48
2022-07-25T11:18:50.297Z,32.27
2022-07-25T11:22:06.189Z,37.74
2022-07-25T11:25:45.768Z,36.39
2022-07-25T11:28:58.547Z,33.48
2022-07-25T11:32:22.323Z,33.17
2022-07-25T11:46:19.094Z,34.28
2022-07-25T11:55:37.311Z,31.43
2022-07-25T11:59:18.171Z,35.34
2022-07-25T12:07:55.429Z,33.15
2022-07-25T12:11:24.734Z,32.17
2022-07-25T12:14:32.302Z,31.62
2022-07-25T12:17:44.337Z,33.96
2022-07-25T12:20:48.590Z,33.29
2022-07-25T12:23:54.972Z,30.99
2022-07-25T12:27:01.106Z,31.44
2022-07-25T12:30:06.612Z,32.21
2022-07-25T12:33:10.799Z,32.44
2022-07-25T12:36:17.232Z,33.42
2022-07-25T12:39:25.126Z,33.05
2022-07-25T12:42:29.128Z,32.87
2022-07-25T12:45:38.703Z,33.68
2022-07-25T12:48:41.658Z,33.16
2022-07-25T12:51:46.909Z,31.51
2022-07-25T13:00:47.252Z,31.59
2022-07-25T13:53:09.379Z,32.95
2022-07-25T13:56:49.227Z,31.88
2022-07-25T14:00:16.589Z,32.67
2022-07-25T14:03:25.554Z,33.25
2022-07-25T14:26:55.817Z,32.83
2022-07-25T14:30:12.264Z,34.73
2022-07-25T14:39:10.573Z,34.69
2022-07-25T14:42:30.904Z,34.80
2022-07-25T14:45:52.268Z,35.96
2022-07-25T14:54:06.576Z,34.48
2022-07-25T14:57:16.116Z,34.44
2022-07-25T15:00:29.569Z,34.08
2022-07-25T15:03:32.324Z,34.97
2022-07-25T15:06:35.988Z,34.73
2022-07-25T15:09:39.540Z,35.38
2022-07-25T15:13:31.060Z,34.92
2022-07-25T15:16:42.993Z,33.56
2022-07-25T15:19:57.900Z,35.21
2022-07-25T15:23:36.236Z,35.38
2022-07-25T15:26:46.587Z,36.13
2022-07-25T15:29:52.034Z,35.62
2022-07-25T15:33:01.169Z,34.47
2022-07-25T15:45:58.684Z,35.63
2022-07-25T15:49:12.595Z,35.35
2022-07-25T15:52:19.489Z,35.05
2022-07-25T15:56:12.462Z,35.52
2022-07-25T15:59:45.100Z,36.52
2022-07-25T16:04:34.246Z,35.08
2022-07-25T16:11:43.763Z,36.09
2022-07-25T16:19:47.433Z,35.03
2022-07-25T16:22:56.429Z,35.59
2022-07-25T16:26:15.721Z,36.48
2022-07-25T16:30:01.064Z,37.37
2022-07-25T16:33:03.648Z,36.31
2022-07-25T16:36:11.403Z,36.56
2022-07-25T16:39:14.287Z,36.47
2022-07-25T16:47:51.910Z,36.13
2022-07-25T16:51:07.541Z,37.31
2022-07-25T16:54:27.970Z,36.40
2022-07-25T16:57:33.478Z,37.32
2022-07-25T17:00:39.782Z,39.25
2022-07-25T17:03:46.138Z,38.75
2022-07-25T17:06:56.045Z,37.34
2022-07-25T17:10:15.173Z,37.91
2022-07-25T17:13:18.019Z,39.53
2022-07-25T17:16:24.636Z,37.83
2022-07-25T17:19:40.202Z,37.39
2022-07-25T17:23:05.611Z,39.02
2022-07-25T17:26:20.089Z,39.07
2022-07-25T17:29:45.884Z,41.48
2022-07-25T17:33:18.121Z,41.57
2022-07-25T17:36:27.500Z,38.18
2022-07-25T17:39:34.451Z,42.69
2022-07-25T17:42:45.077Z,43.24
2022-07-25T17:45:48.187Z,44.31
2022-07-25T17:48:50.719Z,44.74
2022-07-25T17:51:53.140Z,45.69
2022-07-25T17:54:55.710Z,46.64
2022-07-25T17:57:59.745Z,48.95
2022-07-25T18:01:04.807Z,49.29
2022-07-25T18:04:12.038Z,50.73
2022-07-25T18:07:14.649Z,49.97
2022-07-25T18:10:18.552Z,50.14
2022-07-25T18:13:22.409Z,51.22
2022-07-25T18:16:24.616Z,51.44
2022-07-25T18:19:27.369Z,50.40
2022-07-25T18:22:29.820Z,51.50
2022-07-25T18:25:32.518Z,51.90
2022-07-25T18:28:37.530Z,51.37
2022-07-25T18:31:40.116Z,51.60
2022-07-25T18:34:42.910Z,51.80
2022-07-25T18:37:45.471Z,51.72
2022-07-25T18:40:49.450Z,51.58
2022-07-25T18:43:53.127Z,51.52
2022-07-25T18:46:55.477Z,53.20
2022-07-25T18:49:59.002Z,53.04
2022-07-25T18:53:01.465Z,53.25
2022-07-25T18:56:05.945Z,53.05
2022-07-25T18:59:08.689Z,53.30
2022-07-25T19:02:12.546Z,55.06
2022-07-25T19:05:15.990Z,54.55
2022-07-25T19:08:18.713Z,54.85
2022-07-25T19:11:21.035Z,56.28
2022-07-25T19:14:26.377Z,55.49
2022-07-25T19:17:28.757Z,55.23
2022-07-25T19:20:31.746Z,55.22
2022-07-25T19:23:34.301Z,55.65
2022-07-25T19:26:38.017Z,56.61
2022-07-25T19:29:41.712Z,56.52
2022-07-25T19:32:44.421Z,57.96
2022-07-25T19:35:46.935Z,58.60
2022-07-25T19:38:49.610Z,57.88
2022-07-25T19:41:52.505Z,58.42
2022-07-25T19:44:55.426Z,58.97
2022-07-25T19:47:58.069Z,59.20
2022-07-25T19:51:02.040Z,59.85
2022-07-25T19:54:05.021Z,60.75
2022-07-25T19:57:07.950Z,62.27
2022-07-25T20:00:11.209Z,61.51
2022-07-25T20:03:16.556Z,61.53
2022-07-25T20:06:25.721Z,62.97
2022-07-25T20:09:30.485Z,62.54
2022-07-25T20:12:34.532Z,62.27
2022-07-25T20:15:37.424Z,62.88
2022-07-25T20:18:39.878Z,62.47
2022-07-25T20:21:44.514Z,62.85
2022-07-25T20:24:46.744Z,62.35
2022-07-25T20:27:49.995Z,62.84
2022-07-25T20:30:52.635Z,63.38
2022-07-25T20:33:55.517Z,63.68
2022-07-25T20:36:57.937Z,63.59
2022-07-25T20:40:00.811Z,64.24
2022-07-25T20:43:05.065Z,64.26
2022-07-25T20:46:09.783Z,62.59
2022-07-25T20:49:13.902Z,62.98
2022-07-25T20:52:16.680Z,63.83
2022-07-25T20:55:19.242Z,64.32
2022-07-25T20:58:21.745Z,64.09
2022-07-25T21:01:24.293Z,65.32
2022-07-25T21:04:26.722Z,63.88
2022-07-25T21:07:29.058Z,64.01
2022-07-25T21:10:31.628Z,65.17
2022-07-25T21:13:33.832Z,65.99
2022-07-25T21:16:36.582Z,65.54
2022-07-25T21:19:39.169Z,64.21
2022-07-25T21:22:42.890Z,64.67
2022-07-25T21:25:45.170Z,65.42
2022-07-25T21:28:47.718Z,64.81
2022-07-25T21:31:49.972Z,65.44
2022-07-25T21:34:52.660Z,65.06
2022-07-25T21:37:55.041Z,66.26
2022-07-25T21:41:04.699Z,65.24
2022-07-25T21:44:16.449Z,65.93
2022-07-25T21:47:19.539Z,66.54
2022-07-25T21:50:43.916Z,66.62
2022-07-25T21:53:48.103Z,66.41
2022-07-25T21:56:52.487Z,66.25
2022-07-25T21:59:55.702Z,64.70
2022-07-25T22:03:00.773Z,65.38
2022-07-25T22:06:03.818Z,66.99
2022-07-25T22:09:07.322Z,68.41
2022-07-25T22:12:20.952Z,68.36
2022-07-25T22:15:23.618Z,68.15
2022-07-25T22:18:26.702Z,67.74
2022-07-25T22:21:52.898Z,67.95
2022-07-25T22:24:59.325Z,68.81
2022-07-25T22:28:02.035Z,68.17
2022-07-25T22:31:05.321Z,68.86
2022-07-25T22:34:08.044Z,68.08
2022-07-25T22:37:10.867Z,68.68
2022-07-25T22:40:13.786Z,68.38
2022-07-25T22:43:16.801Z,68.36
2022-07-25T22:46:19.698Z,68.42
2022-07-25T22:49:25.000Z,68.80
2022-07-25T22:52:27.821Z,68.47
2022-07-25T22:55:39.823Z,68.75
2022-07-25T22:58:48.759Z,69.59
2022-07-25T23:01:51.673Z,69.75
2022-07-25T23:04:54.236Z,69.58
2022-07-25T23:07:56.892Z,69.34
2022-07-25T23:10:59.303Z,69.87
2022-07-25T23:14:01.741Z,69.48
2022-07-25T23:17:22.416Z,69.87
2022-07-25T23:20:24.751Z,70.41
2022-07-25T23:23:26.940Z,70.98
2022-07-25T23:26:29.563Z,71.27
2022-07-25T23:29:34.955Z,71.60
2022-07-25T23:32:37.543Z,71.26
2022-07-25T23:35:50.514Z,72.24
2022-07-25T23:38:53.225Z,71.94
2022-07-25T23:41:55.669Z,74.01
2022-07-25T23:48:37.478Z,73.32
2022-07-25T23:51:40.131Z,72.42
2022-07-25T23:54:42.332Z,72.61
2022-07-25T23:57:44.947Z,71.09
